createdAt,value
2018-05-24T00:00:47.403Z,0.00
2018-05-24T00:01:47.403Z,0.00
2018-05-24T00:02:47.406Z,0.00
2018-05-24T00:03:47.368Z,0.00
2018-05-24T00:04:47.351Z,0.00
2018-05-24T00:05:47.337Z,0.00
2018-05-24T00:06:47.322Z,0.00
2018-05-24T00:07:47.364Z,0.00
2018-05-24T00:08:47.323Z,0.00
2018-05-24T00:09:47.288Z,0.00
2018-05-24T00:10:47.285Z,0.00
2018-05-24T00:11:47.269Z,0.00
2018-05-24T00:12:47.258Z,0.00
2018-05-24T00:13:47.256Z,0.00
2018-05-24T00:14:47.250Z,0.00
2018-05-24T00:15:47.217Z,0.00
2018-05-24T00:16:47.210Z,0.00
2018-05-24T00:17:47.200Z,0.00
2018-05-24T00:18:47.185Z,0.00
2018-05-24T00:19:47.202Z,0.00
2018-05-24T00:20:47.157Z,0.00
2018-05-24T00:21:47.151Z,0.00
2018-05-24T00:22:47.137Z,0.00
2018-05-24T00:23:47.132Z,0.00
2018-05-24T00:24:47.140Z,0.00
2018-05-24T00:25:47.131Z,0.00
2018-05-24T00:26:47.095Z,0.00
2018-05-24T00:27:47.096Z,0.00
2018-05-24T00:28:47.075Z,0.00
2018-05-24T00:29:47.067Z,0.00
2018-05-24T00:30:47.067Z,0.00
2018-05-24T00:31:47.035Z,0.00
2018-05-24T00:32:47.027Z,0.00
2018-05-24T00:33:47.007Z,0.00
2018-05-24T00:34:46.998Z,0.00
2018-05-24T00:35:47.000Z,0.00
2018-05-24T00:36:47.003Z,0.00
2018-05-24T00:37:46.962Z,0.00
2018-05-24T00:38:46.953Z,0.00
2018-05-24T00:39:46.944Z,0.00
2018-05-24T00:40:46.937Z,0.00
2018-05-24T00:41:46.922Z,0.00
2018-05-24T00:47:22.989Z,0.00
2018-05-24T00:48:22.961Z,0.00
2018-05-24T00:49:22.942Z,0.00
2018-05-24T00:50:22.935Z,0.00
2018-05-24T00:51:22.944Z,0.00
2018-05-24T00:52:22.918Z,0.00
2018-05-24T00:53:22.897Z,0.00
2018-05-24T00:54:22.885Z,0.00
2018-05-24T00:55:22.877Z,0.00
2018-05-24T00:56:22.864Z,0.00
2018-05-24T00:57:22.867Z,0.00
2018-05-24T00:58:22.834Z,0.00
2018-05-24T00:59:22.830Z,0.00
2018-05-24T01:00:22.835Z,0.00
2018-05-24T01:01:22.803Z,0.00
2018-05-24T01:02:22.817Z,0.00
2018-05-24T01:03:22.784Z,0.00
2018-05-24T01:04:22.768Z,0.00
2018-05-24T01:05:26.675Z,0.00
2018-05-24T01:06:22.752Z,0.00
2018-05-24T01:07:22.750Z,0.00
2018-05-24T01:12:58.792Z,0.00
2018-05-24T01:13:58.765Z,0.00
2018-05-24T01:14:58.759Z,0.00
2018-05-24T01:15:58.738Z,0.00
2018-05-24T01:16:58.722Z,0.00
2018-05-24T01:17:58.731Z,0.00
2018-05-24T01:18:58.704Z,0.00
2018-05-24T01:19:58.699Z,0.00
2018-05-24T01:20:58.698Z,0.00
2018-05-24T01:21:58.667Z,0.00
2018-05-24T01:22:58.689Z,0.00
2018-05-24T01:23:58.655Z,0.00
2018-05-24T01:24:58.632Z,0.00
2018-05-24T01:25:58.631Z,0.00
2018-05-24T01:26:58.602Z,0.00
2018-05-24T01:27:58.596Z,0.00
2018-05-24T01:28:58.596Z,0.00
2018-05-24T01:29:58.567Z,0.00
2018-05-24T01:30:58.558Z,0.00
2018-05-24T01:31:58.553Z,0.00
2018-05-24T01:32:58.543Z,0.00
2018-05-24T01:33:58.536Z,0.00
2018-05-24T01:34:58.527Z,0.00
2018-05-24T01:35:58.495Z,0.00
2018-05-24T01:36:58.486Z,0.00
2018-05-24T01:37:58.473Z,0.00
2018-05-24T01:38:58.483Z,0.00
2018-05-24T01:39:58.451Z,0.00
2018-05-24T01:40:58.431Z,0.00
2018-05-24T01:41:58.419Z,0.00
2018-05-24T01:42:58.423Z,0.00
2018-05-24T01:43:58.434Z,0.00
2018-05-24T01:44:58.390Z,0.00
2018-05-24T01:45:58.383Z,0.00
2018-05-24T01:46:58.363Z,0.00
2018-05-24T01:47:58.369Z,0.00
2018-05-24T01:48:58.366Z,0.00
2018-05-24T01:49:58.331Z,0.00
2018-05-24T01:50:58.318Z,0.00
2018-05-24T01:51:58.314Z,0.00
2018-05-24T01:52:58.313Z,0.00
2018-05-24T01:53:58.283Z,0.00
2018-05-24T01:54:58.284Z,0.00
2018-05-24T01:55:58.260Z,0.00
2018-05-24T01:56:58.245Z,0.00
2018-05-24T01:57:58.240Z,0.00
2018-05-24T01:58:58.216Z,0.00
2018-05-24T01:59:58.240Z,0.00
2018-05-24T02:00:58.202Z,0.00
2018-05-24T02:01:58.184Z,0.00
2018-05-24T02:02:58.177Z,0.00
2018-05-24T02:03:58.155Z,0.00
2018-05-24T02:04:58.174Z,0.00
2018-05-24T02:05:58.136Z,0.00
2018-05-24T02:06:58.117Z,0.00
2018-05-24T02:07:58.130Z,0.00
2018-05-24T02:08:58.099Z,0.00
2018-05-24T02:09:58.088Z,0.00
2018-05-24T02:10:58.088Z,0.00
2018-05-24T02:11:58.075Z,0.00
2018-05-24T02:12:58.048Z,0.00
2018-05-24T02:13:58.036Z,0.00
2018-05-24T02:14:58.037Z,0.00
2018-05-24T02:15:58.018Z,0.00
2018-05-24T02:16:57.999Z,0.00
2018-05-24T02:17:58.007Z,0.00
2018-05-24T02:18:57.974Z,0.00
2018-05-24T02:19:57.981Z,0.00
2018-05-24T02:20:57.969Z,0.00
2018-05-24T02:21:57.953Z,0.00
2018-05-24T02:22:57.927Z,0.00
2018-05-24T02:23:57.933Z,0.00
2018-05-24T02:24:57.907Z,0.00
2018-05-24T02:25:57.906Z,0.00
2018-05-24T02:26:57.909Z,0.00
2018-05-24T02:27:57.866Z,0.00
2018-05-24T02:28:57.877Z,0.00
2018-05-24T02:29:57.860Z,0.00
2018-05-24T02:30:57.830Z,0.00
2018-05-24T02:31:57.818Z,0.00
2018-05-24T02:32:57.823Z,0.00
2018-05-24T02:33:57.796Z,0.00
2018-05-24T02:34:57.797Z,0.00
2018-05-24T02:35:57.925Z,0.00
2018-05-24T02:36:57.768Z,0.00
2018-05-24T02:37:57.769Z,0.00
2018-05-24T02:38:57.732Z,0.00
2018-05-24T02:39:57.727Z,0.00
2018-05-24T02:40:57.715Z,0.00
2018-05-24T02:41:57.713Z,0.00
2018-05-24T02:42:57.726Z,0.00
2018-05-24T02:43:57.682Z,0.00
2018-05-24T02:44:57.681Z,0.00
2018-05-24T02:45:57.647Z,0.00
2018-05-24T02:46:57.638Z,0.00
2018-05-24T02:47:57.627Z,0.00
2018-05-24T02:48:57.649Z,0.00
2018-05-24T02:49:57.604Z,0.00
2018-05-24T02:50:57.590Z,0.00
2018-05-24T02:51:57.580Z,0.00
2018-05-24T02:52:57.598Z,0.00
2018-05-24T02:53:57.557Z,0.00
2018-05-24T02:54:57.545Z,0.00
2018-05-24T02:55:57.528Z,0.00
2018-05-24T02:56:57.530Z,0.00
2018-05-24T02:57:57.507Z,0.00
2018-05-24T02:58:57.510Z,0.00
2018-05-24T02:59:57.481Z,0.00
2018-05-24T03:00:57.496Z,0.00
2018-05-24T03:01:57.463Z,0.00
2018-05-24T03:02:57.453Z,0.00
2018-05-24T03:03:57.460Z,0.00
2018-05-24T03:04:57.446Z,0.00
2018-05-24T03:05:57.449Z,0.00
2018-05-24T03:06:57.394Z,0.00
2018-05-24T03:07:57.395Z,0.00
2018-05-24T03:08:57.391Z,0.00
2018-05-24T03:09:57.366Z,0.00
2018-05-24T03:10:57.350Z,0.00
2018-05-24T03:11:57.356Z,0.00
2018-05-24T03:12:57.329Z,0.00
2018-05-24T03:13:57.328Z,0.00
2018-05-24T03:14:57.312Z,0.00
2018-05-24T03:15:57.296Z,0.00
2018-05-24T03:16:57.294Z,0.00
2018-05-24T03:17:57.266Z,0.00
2018-05-24T03:18:57.276Z,0.00
2018-05-24T03:19:57.261Z,0.00
2018-05-24T03:20:57.264Z,0.00
2018-05-24T03:21:57.275Z,0.00
2018-05-24T03:22:57.503Z,0.00
2018-05-24T03:23:57.930Z,0.00
2018-05-24T03:25:06.940Z,0.00
2018-05-24T03:25:58.940Z,0.00
2018-05-24T03:27:03.980Z,0.00
2018-05-24T03:28:14.430Z,0.00
2018-05-24T03:29:06.963Z,0.00
2018-05-24T03:37:11.806Z,0.00
2018-05-24T03:38:11.799Z,0.00
2018-05-24T03:39:11.769Z,0.00
2018-05-24T03:40:11.756Z,4.00
2018-05-24T03:41:18.648Z,4.00
2018-05-24T03:42:11.726Z,4.00
2018-05-24T03:43:11.730Z,4.00
2018-05-24T03:44:11.734Z,4.00
2018-05-24T03:47:38.460Z,4.00
2018-05-24T03:48:38.431Z,4.00
2018-05-24T03:50:56.881Z,8.00
2018-05-24T03:50:57.376Z,4.00
2018-05-24T03:51:57.370Z,4.00
2018-05-24T03:52:57.348Z,8.00
2018-05-24T03:53:57.334Z,8.00
2018-05-24T03:55:13.466Z,8.00
2018-05-24T03:55:57.966Z,8.00
2018-05-24T03:57:00.471Z,8.00
2018-05-24T03:57:57.290Z,12.00
2018-05-24T03:59:57.290Z,12.00
2018-05-24T04:00:57.250Z,12.00
2018-05-24T04:01:57.245Z,12.00
2018-05-24T04:02:57.215Z,12.00
2018-05-24T04:03:57.211Z,12.00
2018-05-24T04:04:57.199Z,12.00
2018-05-24T04:05:57.180Z,16.00
2018-05-24T04:06:57.181Z,12.00
2018-05-24T04:07:57.172Z,16.00
2018-05-24T04:08:57.136Z,16.00
2018-05-24T04:09:57.132Z,20.00
2018-05-24T04:10:57.110Z,20.00
2018-05-24T04:11:57.184Z,24.00
2018-05-24T04:12:57.107Z,24.00
2018-05-24T04:13:57.069Z,24.00
2018-05-24T04:14:57.055Z,24.00
2018-05-24T04:15:57.042Z,28.00
2018-05-24T04:16:57.029Z,28.00
2018-05-24T04:17:57.029Z,32.00
2018-05-24T04:18:57.016Z,32.00
2018-05-24T04:19:56.988Z,32.00
2018-05-24T04:20:56.984Z,32.00
2018-05-24T04:21:56.962Z,28.00
2018-05-24T04:22:56.968Z,28.00
2018-05-24T04:23:56.949Z,32.00
2018-05-24T04:24:56.929Z,28.00
2018-05-24T04:25:56.907Z,24.00
2018-05-24T04:26:56.900Z,28.00
2018-05-24T04:27:56.880Z,32.00
2018-05-24T04:28:56.883Z,32.00
2018-05-24T04:29:56.856Z,32.00
2018-05-24T04:30:56.842Z,36.00
2018-05-24T04:31:56.831Z,36.00
2018-05-24T04:32:56.819Z,36.00
2018-05-24T04:34:18.501Z,28.00
2018-05-24T04:34:56.829Z,32.00
2018-05-24T04:35:56.776Z,32.00
2018-05-24T04:36:56.761Z,32.00
2018-05-24T04:37:56.751Z,28.00
2018-05-24T04:38:56.734Z,28.00
2018-05-24T04:39:56.741Z,24.00
2018-05-24T04:40:56.725Z,24.00
2018-05-24T04:41:56.696Z,16.00
2018-05-24T04:42:56.683Z,20.00
2018-05-24T04:43:56.670Z,20.00
2018-05-24T04:44:56.671Z,20.00
2018-05-24T04:45:56.651Z,16.00
2018-05-24T04:46:56.633Z,16.00
2018-05-24T04:47:56.697Z,16.00
2018-05-24T04:48:56.771Z,16.00
2018-05-24T04:49:56.594Z,20.00
2018-05-24T04:50:56.598Z,24.00
2018-05-24T04:51:56.583Z,28.00
2018-05-24T04:52:56.600Z,24.00
2018-05-24T04:53:56.548Z,20.00
2018-05-24T04:54:56.523Z,24.00
2018-05-24T04:55:56.529Z,20.00
2018-05-24T04:56:56.497Z,20.00
2018-05-24T04:57:56.485Z,16.00
2018-05-24T04:58:56.467Z,16.00
2018-05-24T04:59:56.457Z,16.00
2018-05-24T05:00:56.457Z,20.00
2018-05-24T05:01:56.425Z,20.00
2018-05-24T05:02:56.488Z,20.00
2018-05-24T05:03:56.739Z,28.00
2018-05-24T05:05:05.487Z,32.00
2018-05-24T05:05:56.405Z,36.00
2018-05-24T05:06:56.380Z,40.00
2018-05-24T05:08:01.030Z,40.00
2018-05-24T05:08:56.368Z,44.00
2018-05-24T05:09:56.330Z,40.00
2018-05-24T05:10:56.313Z,44.00
2018-05-24T05:11:56.316Z,56.00
2018-05-24T05:12:56.292Z,64.00
2018-05-24T05:13:56.269Z,60.00
2018-05-24T05:14:56.256Z,60.00
2018-05-24T05:15:56.243Z,68.00
2018-05-24T05:16:56.240Z,84.00
2018-05-24T05:17:56.218Z,108.00
2018-05-24T05:18:56.216Z,116.00
2018-05-24T05:19:56.188Z,116.00
2018-05-24T05:20:56.176Z,116.00
2018-05-24T05:21:56.166Z,116.00
2018-05-24T05:22:56.148Z,108.00
2018-05-24T05:23:56.157Z,96.00
2018-05-24T05:24:56.121Z,92.00
2018-05-24T05:25:56.105Z,84.00
2018-05-24T05:26:56.094Z,88.00
2018-05-24T05:27:56.083Z,96.00
2018-05-24T05:28:56.070Z,100.00
2018-05-24T05:29:56.068Z,100.00
2018-05-24T05:30:56.041Z,92.00
2018-05-24T05:31:56.067Z,96.00
2018-05-24T05:32:56.018Z,96.00
2018-05-24T05:33:56.016Z,96.00
2018-05-24T05:34:56.003Z,112.00
2018-05-24T05:35:55.998Z,136.00
2018-05-24T05:36:55.963Z,152.00
2018-05-24T05:37:55.947Z,160.00
2018-05-24T05:38:55.933Z,172.00
2018-05-24T05:39:55.916Z,180.00
2018-05-24T05:40:55.963Z,184.00
2018-05-24T05:41:55.889Z,196.00
2018-05-24T05:42:55.878Z,220.00
2018-05-24T05:43:55.870Z,252.00
2018-05-24T05:44:55.907Z,292.00
2018-05-24T05:45:55.858Z,296.00
2018-05-24T05:46:55.824Z,284.00
2018-05-24T05:47:55.808Z,276.00
2018-05-24T05:48:55.800Z,260.00
2018-05-24T05:49:55.786Z,248.00
2018-05-24T05:50:55.788Z,240.00
2018-05-24T05:51:55.813Z,256.00
2018-05-24T05:52:55.745Z,268.00
2018-05-24T05:53:55.727Z,272.00
2018-05-24T05:54:55.716Z,288.00
2018-05-24T05:55:55.715Z,296.00
2018-05-24T05:56:55.694Z,288.00
2018-05-24T05:57:55.679Z,264.00
2018-05-24T05:58:55.662Z,252.00
2018-05-24T05:59:55.650Z,248.00
2018-05-24T06:00:55.636Z,244.00
2018-05-24T06:01:55.680Z,240.00
2018-05-24T06:02:55.610Z,240.00
2018-05-24T06:03:55.597Z,240.00
2018-05-24T06:04:55.576Z,224.00
2018-05-24T06:05:55.566Z,208.00
2018-05-24T06:06:55.556Z,196.00
2018-05-24T06:07:55.554Z,192.00
2018-05-24T06:08:55.545Z,192.00
2018-05-24T06:09:55.514Z,192.00
2018-05-24T06:10:55.499Z,196.00
2018-05-24T06:11:55.495Z,204.00
2018-05-24T06:12:55.477Z,216.00
2018-05-24T06:13:55.618Z,228.00
2018-05-24T06:14:55.469Z,244.00
2018-05-24T06:15:55.440Z,264.00
2018-05-24T06:16:55.556Z,284.00
2018-05-24T06:17:55.410Z,288.00
2018-05-24T06:18:55.393Z,280.00
2018-05-24T06:19:55.398Z,264.00
2018-05-24T06:20:55.369Z,244.00
2018-05-24T06:21:55.352Z,220.00
2018-05-24T06:22:55.345Z,196.00
2018-05-24T06:23:55.328Z,200.00
2018-05-24T06:24:55.335Z,208.00
2018-05-24T06:25:55.299Z,240.00
2018-05-24T06:26:55.285Z,256.00
2018-05-24T06:27:55.274Z,260.00
2018-05-24T06:28:55.261Z,264.00
2018-05-24T06:29:55.245Z,276.00
2018-05-24T06:30:55.245Z,268.00
2018-05-24T06:31:55.219Z,276.00
2018-05-24T06:32:55.206Z,296.00
2018-05-24T06:33:55.197Z,320.00
2018-05-24T06:34:55.181Z,384.00
2018-05-24T06:35:55.183Z,496.00
2018-05-24T06:36:55.184Z,584.00
2018-05-24T06:37:55.136Z,712.00
2018-05-24T06:38:55.124Z,836.00
2018-05-24T06:39:55.129Z,904.00
2018-05-24T06:40:55.155Z,864.00
2018-05-24T06:41:55.097Z,792.00
2018-05-24T06:42:55.066Z,752.00
2018-05-24T06:43:55.056Z,700.00
2018-05-24T06:44:55.052Z,656.00
2018-05-24T06:45:55.034Z,644.00
2018-05-24T06:46:55.037Z,640.00
2018-05-24T06:47:55.005Z,628.00
2018-05-24T06:48:54.989Z,632.00
2018-05-24T06:49:54.975Z,644.00
2018-05-24T06:50:54.965Z,644.00
2018-05-24T06:51:54.970Z,636.00
2018-05-24T06:52:58.575Z,596.00
2018-05-24T06:53:54.946Z,548.00
2018-05-24T06:54:54.911Z,508.00
2018-05-24T06:55:54.900Z,460.00
2018-05-24T06:56:54.902Z,424.00
2018-05-24T06:57:54.917Z,384.00
2018-05-24T06:58:54.859Z,340.00
2018-05-24T06:59:55.037Z,316.00
2018-05-24T07:00:54.829Z,312.00
2018-05-24T07:01:54.835Z,340.00
2018-05-24T07:02:54.820Z,376.00
2018-05-24T07:03:54.793Z,372.00
2018-05-24T07:04:54.845Z,380.00
2018-05-24T07:05:54.808Z,384.00
2018-05-24T07:06:54.758Z,404.00
2018-05-24T07:07:54.760Z,472.00
2018-05-24T07:08:54.727Z,540.00
2018-05-24T07:09:54.715Z,536.00
2018-05-24T07:10:54.704Z,484.00
2018-05-24T07:11:54.685Z,440.00
2018-05-24T07:13:02.656Z,408.00
2018-05-24T07:13:54.662Z,476.00
2018-05-24T07:14:54.649Z,592.00
2018-05-24T07:15:54.635Z,684.00
2018-05-24T07:16:54.618Z,768.00
2018-05-24T07:17:54.628Z,856.00
2018-05-24T07:18:54.617Z,932.00
2018-05-24T07:19:54.590Z,968.00
2018-05-24T07:20:54.567Z,908.00
2018-05-24T07:21:54.559Z,828.00
2018-05-24T07:22:54.556Z,728.00
2018-05-24T07:23:54.547Z,620.00
2018-05-24T07:24:54.522Z,528.00
2018-05-24T07:25:54.511Z,500.00
2018-05-24T07:26:54.495Z,488.00
2018-05-24T07:27:54.475Z,480.00
2018-05-24T07:28:54.468Z,480.00
2018-05-24T07:29:54.468Z,508.00
2018-05-24T07:30:54.500Z,532.00
2018-05-24T07:31:54.436Z,524.00
2018-05-24T07:32:54.412Z,528.00
2018-05-24T07:33:54.423Z,496.00
2018-05-24T07:34:54.407Z,436.00
2018-05-24T07:35:54.383Z,424.00
2018-05-24T07:37:01.091Z,432.00
2018-05-24T07:37:54.485Z,444.00
2018-05-24T07:38:54.346Z,484.00
2018-05-24T07:39:54.328Z,532.00
2018-05-24T07:40:54.356Z,624.00
2018-05-24T07:41:54.301Z,712.00
2018-05-24T07:42:54.283Z,772.00
2018-05-24T07:43:54.278Z,796.00
2018-05-24T07:44:54.280Z,808.00
2018-05-24T07:45:54.264Z,824.00
2018-05-24T07:46:54.246Z,852.00
2018-05-24T07:47:54.225Z,896.00
2018-05-24T07:48:54.212Z,948.00
2018-05-24T07:49:54.203Z,1008.00
2018-05-24T07:50:54.200Z,1068.00
2018-05-24T07:51:54.219Z,1112.00
2018-05-24T07:52:54.156Z,1168.00
2018-05-24T07:53:54.147Z,1180.00
2018-05-24T07:54:54.233Z,1256.00
2018-05-24T07:55:54.117Z,1252.00
2018-05-24T07:56:54.122Z,1252.00
2018-05-24T07:57:54.099Z,1232.00
2018-05-24T07:58:54.101Z,1252.00
2018-05-24T07:59:54.074Z,1284.00
2018-05-24T08:00:54.073Z,1344.00
2018-05-24T08:01:54.063Z,1440.00
2018-05-24T08:02:54.039Z,1544.00
2018-05-24T08:03:54.021Z,1592.00
2018-05-24T08:04:54.016Z,1644.00
2018-05-24T08:05:54.009Z,1628.00
2018-05-24T08:06:53.987Z,1624.00
2018-05-24T08:07:53.994Z,1588.00
2018-05-24T08:08:53.964Z,1540.00
2018-05-24T08:09:53.947Z,1512.00
2018-05-24T08:10:53.940Z,1496.00
2018-05-24T08:11:53.926Z,1440.00
2018-05-24T08:12:53.927Z,1392.00
2018-05-24T08:13:53.910Z,1356.00
2018-05-24T08:14:53.890Z,1340.00
2018-05-24T08:15:53.875Z,1364.00
2018-05-24T08:16:53.866Z,1420.00
2018-05-24T08:17:53.872Z,1484.00
2018-05-24T08:18:53.899Z,1540.00
2018-05-24T08:19:53.835Z,1580.00
2018-05-24T08:20:53.828Z,1600.00
2018-05-24T08:21:53.812Z,1612.00
2018-05-24T08:22:53.869Z,1628.00
2018-05-24T08:23:53.804Z,1616.00
2018-05-24T08:24:53.776Z,1592.00
2018-05-24T08:25:53.782Z,1540.00
2018-05-24T08:26:53.754Z,1508.00
2018-05-24T08:27:53.741Z,1500.00
2018-05-24T08:28:53.726Z,1504.00
2018-05-24T08:29:53.716Z,1500.00
2018-05-24T08:30:53.725Z,1496.00
2018-05-24T08:31:53.697Z,1508.00
2018-05-24T08:32:53.703Z,1516.00
2018-05-24T08:33:53.690Z,1572.00
2018-05-24T08:34:53.661Z,1612.00
2018-05-24T08:35:53.654Z,1632.00
2018-05-24T08:36:53.640Z,1668.00
2018-05-24T08:37:53.647Z,1728.00
2018-05-24T08:38:53.612Z,1812.00
2018-05-24T08:39:53.609Z,1952.00
2018-05-24T08:40:53.685Z,2132.00
2018-05-24T08:41:53.587Z,2332.00
2018-05-24T08:42:53.596Z,2492.00
2018-05-24T08:43:53.564Z,2592.00
2018-05-24T08:44:53.561Z,2716.00
2018-05-24T08:45:53.564Z,2792.00
2018-05-24T08:46:53.537Z,2872.00
2018-05-24T08:47:53.522Z,2852.00
2018-05-24T08:48:53.543Z,2784.00
2018-05-24T08:49:53.498Z,2660.00
2018-05-24T08:50:53.506Z,2652.00
2018-05-24T08:51:53.498Z,2740.00
2018-05-24T08:52:53.469Z,2796.00
2018-05-24T08:53:53.472Z,2708.00
2018-05-24T08:54:53.446Z,2568.00
2018-05-24T08:55:53.448Z,2408.00
2018-05-24T08:56:53.428Z,2256.00
2018-05-24T08:57:53.416Z,2248.00
2018-05-24T08:58:53.412Z,2468.00
2018-05-24T08:59:53.412Z,2784.00
2018-05-24T09:00:53.389Z,3076.00
2018-05-24T09:01:53.371Z,3280.00
2018-05-24T09:02:53.366Z,3392.00
2018-05-24T09:03:53.362Z,3488.00
2018-05-24T09:04:53.362Z,3416.00
2018-05-24T09:05:53.343Z,3584.00
2018-05-24T09:06:53.325Z,3696.00
2018-05-24T09:07:53.338Z,3412.00
2018-05-24T09:08:53.373Z,3352.00
2018-05-24T09:09:53.316Z,3420.00
2018-05-24T09:10:53.290Z,3964.00
2018-05-24T09:11:53.276Z,4836.00
2018-05-24T09:12:53.272Z,6044.00
2018-05-24T09:13:53.265Z,4484.00
2018-05-24T09:14:53.271Z,3476.00
2018-05-24T09:15:53.242Z,2988.00
2018-05-24T09:16:53.234Z,2532.00
2018-05-24T09:17:53.233Z,2400.00
2018-05-24T09:18:53.216Z,2340.00
2018-05-24T09:19:53.207Z,2244.00
2018-05-24T09:20:53.212Z,2172.00
2018-05-24T09:21:53.278Z,2260.00
2018-05-24T09:22:53.181Z,2156.00
2018-05-24T09:23:53.166Z,2088.00
2018-05-24T09:24:53.176Z,1980.00
2018-05-24T09:25:53.163Z,1888.00
2018-05-24T09:26:53.143Z,1772.00
2018-05-24T09:27:53.133Z,1712.00
2018-05-24T09:28:53.130Z,1636.00
2018-05-24T09:29:53.115Z,1584.00
2018-05-24T09:30:53.118Z,1544.00
2018-05-24T09:31:53.100Z,1536.00
2018-05-24T09:32:53.087Z,1508.00
2018-05-24T09:33:53.077Z,1508.00
2018-05-24T09:34:53.092Z,1516.00
2018-05-24T09:35:53.063Z,1520.00
2018-05-24T09:36:53.050Z,1512.00
2018-05-24T09:37:53.044Z,1484.00
2018-05-24T09:38:53.035Z,1480.00
2018-05-24T09:39:53.028Z,1476.00
2018-05-24T09:40:53.029Z,1480.00
2018-05-24T09:41:53.025Z,1508.00
2018-05-24T09:42:53.012Z,1560.00
2018-05-24T09:43:52.988Z,1640.00
2018-05-24T09:44:52.983Z,1744.00
2018-05-24T09:45:52.965Z,1876.00
2018-05-24T09:46:52.961Z,2000.00
2018-05-24T09:48:13.965Z,2160.00
2018-05-24T09:48:52.944Z,2264.00
2018-05-24T09:49:52.948Z,2360.00
2018-05-24T09:50:52.920Z,2604.00
2018-05-24T09:51:52.917Z,2256.00
2018-05-24T09:52:52.908Z,2196.00
2018-05-24T09:53:52.913Z,2200.00
2018-05-24T09:54:52.883Z,2240.00
2018-05-24T09:55:52.874Z,2232.00
2018-05-24T09:56:52.868Z,2268.00
2018-05-24T09:57:52.861Z,2268.00
2018-05-24T09:58:52.853Z,2320.00
2018-05-24T09:59:52.855Z,2332.00
2018-05-24T10:00:52.828Z,2320.00
2018-05-24T10:01:52.825Z,2264.00
2018-05-24T10:02:52.826Z,2192.00
2018-05-24T10:03:52.801Z,2124.00
2018-05-24T10:04:52.796Z,2132.00
2018-05-24T10:05:52.781Z,2164.00
2018-05-24T10:06:52.775Z,2200.00
2018-05-24T10:07:52.769Z,2256.00
2018-05-24T10:08:52.771Z,2476.00
2018-05-24T10:09:52.746Z,3160.00
2018-05-24T10:10:52.735Z,2324.00
2018-05-24T10:11:52.730Z,2232.00
2018-05-24T10:12:52.714Z,2100.00
2018-05-24T10:13:52.721Z,2020.00
2018-05-24T10:14:52.698Z,2004.00
2018-05-24T10:15:52.700Z,1936.00
2018-05-24T10:16:52.681Z,2052.00
2018-05-24T10:17:52.676Z,2408.00
2018-05-24T10:18:52.663Z,2436.00
2018-05-24T10:19:52.670Z,2616.00
2018-05-24T10:20:52.644Z,2644.00
2018-05-24T10:21:52.633Z,2740.00
2018-05-24T10:22:52.625Z,3016.00
2018-05-24T10:23:52.617Z,4312.00
2018-05-24T10:24:52.625Z,3592.00
2018-05-24T10:25:52.598Z,3132.00
2018-05-24T10:26:52.586Z,2780.00
2018-05-24T10:27:52.579Z,2624.00
2018-05-24T10:28:52.572Z,2556.00
2018-05-24T10:29:52.579Z,2488.00
2018-05-24T10:30:52.551Z,2424.00
2018-05-24T10:31:52.543Z,2384.00
2018-05-24T10:32:52.532Z,2432.00
2018-05-24T10:33:52.525Z,2592.00
2018-05-24T10:34:52.516Z,2684.00
2018-05-24T10:35:52.529Z,3204.00
2018-05-24T10:36:52.500Z,4008.00
2018-05-24T10:37:52.492Z,4144.00
2018-05-24T10:38:52.480Z,3676.00
2018-05-24T10:39:52.472Z,3488.00
2018-05-24T10:40:52.467Z,3464.00
2018-05-24T10:41:52.472Z,3564.00
2018-05-24T10:42:52.448Z,3616.00
2018-05-24T10:43:52.439Z,3816.00
2018-05-24T10:44:52.430Z,4140.00
2018-05-24T10:45:52.438Z,4676.00
2018-05-24T10:46:52.412Z,8252.00
2018-05-24T10:47:52.431Z,6204.00
2018-05-24T10:48:52.395Z,7568.00
2018-05-24T10:49:52.389Z,9984.00
2018-05-24T10:50:52.480Z,14756.00
2018-05-24T10:51:52.403Z,8236.00
2018-05-24T10:52:52.364Z,7840.00
2018-05-24T10:53:52.351Z,7060.00
2018-05-24T10:54:52.358Z,4208.00
2018-05-24T10:55:52.339Z,4960.00
2018-05-24T10:56:52.330Z,7784.00
2018-05-24T10:57:52.421Z,14460.00
2018-05-24T10:58:52.321Z,18816.00
2018-05-24T10:59:52.310Z,14536.00
2018-05-24T11:00:52.310Z,20544.00
2018-05-24T11:01:52.298Z,20640.00
2018-05-24T11:02:52.290Z,20224.00
2018-05-24T11:03:52.300Z,20864.00
2018-05-24T11:04:52.273Z,17248.00
2018-05-24T11:05:52.269Z,19936.00
2018-05-24T11:06:52.272Z,19648.00
2018-05-24T11:07:52.261Z,18816.00
2018-05-24T11:08:52.276Z,12928.00
2018-05-24T11:09:52.274Z,9664.00
2018-05-24T11:10:52.247Z,7112.00
2018-05-24T11:11:52.238Z,6648.00
2018-05-24T11:12:52.240Z,7488.00
2018-05-24T11:13:55.134Z,12184.00
2018-05-24T11:14:52.245Z,14376.00
2018-05-24T11:15:52.240Z,11748.00
2018-05-24T11:16:52.241Z,15552.00
2018-05-24T11:17:52.212Z,18880.00
2018-05-24T11:18:52.214Z,12980.00
2018-05-24T11:19:52.210Z,14804.00
2018-05-24T11:20:52.223Z,11560.00
2018-05-24T11:21:52.198Z,12196.00
2018-05-24T11:22:52.225Z,10652.00
2018-05-24T11:23:52.193Z,16032.00
2018-05-24T11:24:52.203Z,16736.00
2018-05-24T11:25:52.203Z,12292.00
2018-05-24T11:26:52.279Z,16864.00
2018-05-24T11:27:52.186Z,16800.00
2018-05-24T11:28:52.280Z,11492.00
2018-05-24T11:29:52.178Z,11180.00
2018-05-24T11:30:52.170Z,8208.00
2018-05-24T11:31:52.229Z,5808.00
2018-05-24T11:32:52.177Z,5148.00
2018-05-24T11:33:52.170Z,7096.00
2018-05-24T11:34:52.157Z,5900.00
2018-05-24T11:35:52.189Z,4180.00
2018-05-24T11:36:52.175Z,4212.00
2018-05-24T11:37:52.152Z,3568.00
2018-05-24T11:38:52.148Z,3144.00
2018-05-24T11:39:52.144Z,3268.00
2018-05-24T11:40:52.150Z,3296.00
2018-05-24T11:41:52.156Z,3172.00
2018-05-24T11:42:52.149Z,3852.00
2018-05-24T11:43:52.137Z,3868.00
2018-05-24T11:44:52.135Z,3504.00
2018-05-24T11:45:52.143Z,3948.00
2018-05-24T11:46:52.122Z,3772.00
2018-05-24T11:47:52.111Z,3664.00
2018-05-24T11:49:52.152Z,3616.00
2018-05-24T11:50:52.102Z,4184.00
2018-05-24T11:51:52.208Z,4360.00
2018-05-24T11:52:52.114Z,3908.00
2018-05-24T11:53:52.087Z,3792.00
2018-05-24T11:54:52.080Z,3240.00
2018-05-24T11:55:52.073Z,3168.00
2018-05-24T11:56:52.071Z,3492.00
2018-05-24T11:57:52.061Z,3480.00
2018-05-24T11:58:52.073Z,3496.00
2018-05-24T11:59:52.061Z,3696.00
2018-05-24T12:00:52.054Z,3888.00
2018-05-24T12:01:52.087Z,3928.00
2018-05-24T12:02:52.038Z,3660.00
2018-05-24T12:03:52.052Z,3596.00
2018-05-24T12:04:52.047Z,3860.00
2018-05-24T12:05:58.700Z,4740.00
2018-05-24T12:06:52.017Z,3768.00
2018-05-24T12:07:52.027Z,3252.00
2018-05-24T12:08:52.008Z,3028.00
2018-05-24T12:09:52.089Z,2924.00
2018-05-24T12:10:51.995Z,2888.00
2018-05-24T12:11:51.990Z,2596.00
2018-05-24T12:12:51.983Z,2152.00
2018-05-24T12:13:51.982Z,2256.00
2018-05-24T12:14:51.975Z,2072.00
2018-05-24T12:15:51.984Z,1820.00
2018-05-24T12:16:51.963Z,2156.00
2018-05-24T12:17:51.956Z,2420.00
2018-05-24T12:18:51.949Z,2648.00
2018-05-24T12:19:51.940Z,2656.00
2018-05-24T12:20:51.954Z,2548.00
2018-05-24T12:21:51.930Z,2340.00
2018-05-24T12:22:51.924Z,2364.00
2018-05-24T12:23:51.978Z,1664.00
2018-05-24T12:24:51.913Z,2036.00
2018-05-24T12:25:51.922Z,2140.00
2018-05-24T12:26:51.900Z,2024.00
2018-05-24T12:27:51.916Z,2072.00
2018-05-24T12:28:51.889Z,2124.00
2018-05-24T12:29:51.905Z,2220.00
2018-05-24T12:30:51.874Z,2292.00
2018-05-24T12:31:51.886Z,2456.00
2018-05-24T12:32:51.881Z,2900.00
2018-05-24T12:33:51.856Z,2780.00
2018-05-24T12:34:51.848Z,2556.00
2018-05-24T12:35:51.861Z,2448.00
2018-05-24T12:36:51.841Z,1984.00
2018-05-24T12:37:51.831Z,1844.00
2018-05-24T12:38:51.822Z,2140.00
2018-05-24T12:39:51.858Z,2312.00
2018-05-24T12:40:51.821Z,2212.00
2018-05-24T12:41:51.856Z,2352.00
2018-05-24T12:42:51.799Z,2600.00
2018-05-24T12:43:52.918Z,2868.00
2018-05-24T12:44:51.786Z,3724.00
2018-05-24T12:45:51.777Z,3468.00
2018-05-24T12:46:51.897Z,3412.00
2018-05-24T12:47:51.785Z,3280.00
2018-05-24T12:48:51.754Z,3832.00
2018-05-24T12:49:51.754Z,3552.00
2018-05-24T12:50:51.844Z,3460.00
2018-05-24T12:51:51.763Z,2196.00
2018-05-24T12:52:51.736Z,3384.00
2018-05-24T12:53:51.728Z,3080.00
2018-05-24T12:54:51.723Z,2464.00
2018-05-24T12:55:51.726Z,2756.00